createdAt,value
2018-01-13T00:00:40.821Z,24.77
2018-01-13T00:03:21.383Z,25.03
2018-01-13T00:06:01.748Z,24.27
2018-01-13T00:08:45.057Z,25.33
2018-01-13T00:11:25.124Z,23.60
2018-01-13T00:13:52.716Z,24.43
2018-01-13T00:16:19.576Z,25.70
2018-01-13T00:18:47.255Z,23.20
2018-01-13T00:21:14.308Z,24.77
2018-01-13T00:23:41.331Z,22.85
2018-01-13T00:26:09.021Z,27.13
2018-01-13T00:28:35.924Z,25.52
2018-01-13T00:31:02.892Z,26.33
2018-01-13T00:33:30.567Z,24.23
2018-01-13T00:35:57.419Z,26.05
2018-01-13T00:38:24.271Z,23.80
2018-01-13T00:40:51.203Z,22.87
2018-01-13T00:43:18.863Z,24.57
2018-01-13T00:45:46.471Z,27.60
2018-01-13T00:48:13.439Z,24.43
2018-01-13T00:50:40.338Z,23.60
2018-01-13T00:53:07.268Z,26.10
2018-01-13T00:55:34.187Z,24.30
2018-01-13T00:58:01.049Z,24.50
2018-01-13T01:00:28.020Z,22.20
2018-01-13T01:02:54.984Z,24.25
2018-01-13T01:05:21.845Z,22.35
2018-01-13T01:07:48.782Z,26.87
2018-01-13T01:10:15.634Z,22.00
2018-01-13T01:12:42.571Z,25.85
2018-01-13T01:15:09.518Z,25.67
2018-01-13T01:17:36.439Z,24.20
2018-01-13T01:20:03.303Z,23.80
2018-01-13T01:22:30.195Z,26.92
2018-01-13T01:24:57.860Z,21.87
2018-01-13T01:27:25.442Z,25.02
2018-01-13T01:29:52.368Z,24.52
2018-01-13T01:32:19.971Z,22.75
2018-01-13T01:34:46.896Z,25.48
2018-01-13T01:37:13.751Z,22.55
2018-01-13T01:39:40.748Z,24.60
2018-01-13T01:42:07.610Z,23.25
2018-01-13T01:44:35.214Z,26.57
2018-01-13T01:47:02.155Z,26.30
2018-01-13T01:49:29.103Z,23.65
2018-01-13T01:51:56.012Z,25.40
2018-01-13T01:54:23.693Z,23.67
2018-01-13T01:56:50.871Z,23.35
2018-01-13T01:59:17.811Z,23.38
2018-01-13T02:01:44.675Z,25.00
2018-01-13T02:04:11.583Z,21.55
2018-01-13T02:06:38.455Z,24.10
2018-01-13T02:09:05.366Z,24.45
2018-01-13T02:11:32.288Z,25.35
2018-01-13T02:13:59.911Z,23.48
2018-01-13T02:16:26.781Z,28.33
2018-01-13T02:18:53.707Z,27.10
2018-01-13T02:21:20.588Z,26.80
2018-01-13T02:23:47.439Z,25.40
2018-01-13T02:26:15.099Z,23.38
2018-01-13T02:28:42.709Z,25.17
2018-01-13T02:31:09.623Z,23.55
2018-01-13T02:33:36.544Z,24.08
2018-01-13T02:36:03.458Z,24.55
2018-01-13T02:38:30.405Z,28.50
2018-01-13T02:40:57.263Z,30.23
2018-01-13T02:43:24.121Z,29.12
2018-01-13T02:45:51.046Z,27.85
2018-01-13T02:48:17.915Z,26.48
2018-01-13T02:50:44.887Z,25.67
2018-01-13T02:53:11.828Z,24.15
2018-01-13T02:55:39.439Z,25.23
2018-01-13T02:58:06.299Z,28.40
2018-01-13T03:00:33.256Z,24.75
2018-01-13T03:03:00.175Z,28.05
2018-01-13T03:05:27.043Z,25.35
2018-01-13T03:07:53.995Z,22.15
2018-01-13T03:10:20.872Z,23.90
2018-01-13T03:12:47.742Z,21.08
2018-01-13T03:15:14.676Z,22.25
2018-01-13T03:17:41.526Z,23.17
2018-01-13T03:20:08.408Z,25.62
2018-01-13T03:22:35.335Z,22.20
2018-01-13T03:25:02.223Z,23.98
2018-01-13T03:27:29.903Z,23.42
2018-01-13T03:29:56.758Z,22.48
2018-01-13T03:32:23.689Z,22.73
2018-01-13T03:34:51.285Z,24.87
2018-01-13T03:37:18.123Z,22.17
2018-01-13T03:39:45.127Z,21.23
2018-01-13T03:42:12.723Z,21.62
2018-01-13T03:44:39.671Z,22.08
2018-01-13T03:47:06.598Z,20.40
2018-01-13T03:49:33.478Z,19.90
2018-01-13T03:52:00.399Z,20.75
2018-01-13T03:54:27.335Z,22.80
2018-01-13T03:56:54.256Z,18.80
2018-01-13T03:59:21.909Z,20.65
2018-01-13T04:01:48.772Z,20.27
2018-01-13T04:04:16.446Z,21.03
2018-01-13T04:06:44.054Z,20.73
2018-01-13T04:09:11.008Z,19.85
2018-01-13T04:11:37.953Z,19.60
2018-01-13T04:14:04.807Z,19.27
2018-01-13T04:16:31.742Z,19.60
2018-01-13T04:18:58.600Z,21.45
2018-01-13T04:21:25.533Z,20.55
2018-01-13T04:23:52.391Z,21.70
2018-01-13T04:26:19.327Z,21.25
2018-01-13T04:28:46.252Z,21.10
2018-01-13T04:31:13.101Z,21.60
2018-01-13T04:33:40.023Z,21.05
2018-01-13T04:36:06.939Z,20.40
2018-01-13T04:38:33.782Z,20.05
2018-01-13T04:41:00.691Z,20.88
2018-01-13T04:43:27.550Z,22.70
2018-01-13T04:45:54.539Z,22.02
2018-01-13T04:48:21.466Z,23.20
2018-01-13T04:50:49.071Z,21.27
2018-01-13T04:53:16.046Z,20.27
2018-01-13T04:55:43.083Z,20.85
2018-01-13T04:58:09.956Z,23.05
2018-01-13T05:00:36.882Z,21.25
2018-01-13T05:03:03.722Z,23.62
2018-01-13T05:05:30.646Z,19.92
2018-01-13T05:07:57.574Z,20.35
2018-01-13T05:10:24.524Z,19.12
2018-01-13T05:12:51.379Z,20.30
2018-01-13T05:15:18.257Z,20.00
2018-01-13T05:17:45.175Z,18.87
2018-01-13T05:20:12.035Z,19.67
2018-01-13T05:22:38.982Z,16.42
2018-01-13T05:25:05.915Z,19.42
2018-01-13T05:30:16.458Z,19.37
2018-01-13T05:32:44.066Z,19.90
2018-01-13T05:35:10.923Z,22.20
2018-01-13T05:37:37.855Z,17.52
2018-01-13T05:40:04.704Z,20.83
2018-01-13T05:42:31.623Z,18.35
2018-01-13T05:44:58.488Z,19.58
2018-01-13T05:47:26.755Z,18.23
2018-01-13T05:49:53.686Z,17.90
2018-01-13T05:52:20.535Z,18.95
2018-01-13T05:54:47.563Z,19.85
2018-01-13T05:57:15.166Z,18.60
2018-01-13T05:59:42.073Z,18.03
2018-01-13T06:02:09.671Z,18.45
2018-01-13T06:04:36.583Z,17.37
2018-01-13T06:07:03.434Z,17.10
2018-01-13T06:09:30.400Z,19.62
2018-01-13T06:11:57.350Z,18.12
2018-01-13T06:14:24.272Z,18.53
2018-01-13T06:16:51.116Z,17.80
2018-01-13T06:19:18.037Z,18.90
2018-01-13T06:21:45.632Z,20.37
2018-01-13T06:24:12.599Z,21.30
2018-01-13T06:26:39.452Z,19.80
2018-01-13T06:29:06.379Z,21.62
2018-01-13T06:31:33.228Z,20.27
2018-01-13T06:34:00.160Z,19.90
2018-01-13T06:36:27.010Z,21.33
2018-01-13T06:38:53.877Z,21.85
2018-01-13T06:41:20.808Z,19.62
2018-01-13T06:43:47.727Z,20.50
2018-01-13T06:46:14.726Z,18.57
2018-01-13T06:48:41.623Z,23.73
2018-01-13T06:51:08.553Z,20.65
2018-01-13T06:53:36.148Z,22.20
2018-01-13T06:56:03.064Z,22.52
2018-01-13T06:58:30.772Z,19.17
2018-01-13T07:00:57.738Z,21.30
2018-01-13T07:03:24.574Z,23.33
2018-01-13T07:05:51.431Z,20.63
2018-01-13T07:08:18.354Z,21.05
2018-01-13T07:10:45.194Z,19.90
2018-01-13T07:13:12.044Z,24.75
2018-01-13T07:15:38.956Z,24.58
2018-01-13T07:18:05.809Z,25.50
2018-01-13T07:20:32.733Z,24.33
2018-01-13T07:23:00.375Z,21.35
2018-01-13T07:25:27.514Z,22.33
2018-01-13T07:27:54.723Z,21.58
2018-01-13T07:30:21.591Z,20.52
2018-01-13T07:32:57.970Z,23.08
2018-01-13T07:35:27.383Z,27.98
2018-01-13T07:37:54.314Z,26.15
2018-01-13T07:40:21.169Z,23.40
2018-01-13T07:42:48.101Z,26.23
2018-01-13T07:45:15.147Z,23.98
2018-01-13T07:47:42.111Z,29.48
2018-01-13T07:52:52.855Z,26.20
2018-01-13T07:55:19.888Z,27.62
2018-01-13T07:57:47.534Z,25.90
2018-01-13T08:00:14.483Z,32.40
2018-01-13T08:02:42.324Z,34.60
2018-01-13T08:05:09.894Z,38.88
2018-01-13T08:07:36.821Z,33.15
2018-01-13T08:10:05.390Z,32.90
2018-01-13T08:12:37.091Z,40.40
2018-01-13T08:15:04.045Z,39.60
2018-01-13T08:17:31.638Z,33.25
2018-01-13T08:20:01.573Z,31.98
2018-01-13T08:22:28.452Z,30.62
2018-01-13T08:24:56.359Z,31.83
2018-01-13T08:27:23.226Z,32.60
2018-01-13T08:29:50.251Z,32.42
2018-01-13T08:32:17.095Z,31.43
2018-01-13T08:34:43.942Z,31.90
2018-01-13T08:37:10.858Z,30.85
2018-01-13T08:39:37.712Z,28.00
2018-01-13T08:42:05.401Z,29.90
2018-01-13T08:44:32.267Z,30.85
2018-01-13T08:46:59.190Z,25.83
2018-01-13T08:49:26.072Z,25.50
2018-01-13T08:51:52.923Z,27.13
2018-01-13T08:54:19.848Z,25.00
2018-01-13T08:56:46.779Z,25.70
2018-01-13T08:59:13.702Z,24.08
2018-01-13T09:01:55.629Z,25.52
2018-01-13T09:04:22.540Z,25.33
2018-01-13T09:06:50.138Z,26.45
2018-01-13T09:09:17.063Z,25.08
2018-01-13T09:11:43.989Z,25.20
2018-01-13T09:14:11.642Z,25.00
2018-01-13T09:16:38.502Z,24.70
2018-01-13T09:19:06.169Z,22.95
2018-01-13T09:21:33.070Z,23.25
2018-01-13T09:23:59.999Z,24.43
2018-01-13T09:26:26.851Z,24.13
2018-01-13T09:28:53.766Z,23.03
2018-01-13T09:31:20.628Z,22.77
2018-01-13T09:33:47.478Z,24.80
2018-01-13T09:36:14.404Z,26.27
2018-01-13T09:38:41.252Z,24.50
2018-01-13T09:41:08.100Z,23.03
2018-01-13T09:43:35.050Z,23.80
2018-01-13T09:46:01.929Z,22.27
2018-01-13T09:48:28.862Z,24.37
2018-01-13T09:50:55.795Z,23.20
2018-01-13T09:53:22.702Z,23.60
2018-01-13T09:55:49.732Z,22.87
2018-01-13T09:58:17.335Z,22.73
2018-01-13T10:00:44.310Z,21.90
2018-01-13T10:03:11.174Z,22.67
2018-01-13T10:05:38.095Z,25.00
2018-01-13T10:08:04.967Z,23.50
2018-01-13T10:10:31.887Z,22.90
2018-01-13T10:12:58.830Z,20.70
2018-01-13T10:15:25.689Z,22.63
2018-01-13T10:17:52.620Z,21.37
2018-01-13T10:20:19.470Z,21.50
2018-01-13T10:22:46.347Z,19.33
2018-01-13T10:25:14.006Z,18.13
2018-01-13T10:27:40.942Z,20.60
2018-01-13T10:30:07.866Z,20.17
2018-01-13T10:32:34.733Z,19.93
2018-01-13T10:35:01.590Z,19.97
2018-01-13T10:37:28.533Z,18.37
2018-01-13T10:39:55.486Z,19.03
2018-01-13T10:42:23.170Z,19.67
2018-01-13T10:44:50.035Z,21.13
2018-01-13T10:47:16.963Z,19.30
2018-01-13T10:49:43.812Z,18.50
2018-01-13T10:52:10.723Z,17.63
2018-01-13T10:54:37.636Z,18.97
2018-01-13T10:57:04.581Z,17.83
2018-01-13T10:59:31.424Z,20.30
2018-01-13T11:01:58.374Z,18.80
2018-01-13T11:04:25.217Z,20.30
2018-01-13T11:06:52.080Z,19.03
2018-01-13T11:09:19.011Z,18.60
2018-01-13T11:11:45.874Z,15.30
2018-01-13T11:14:12.805Z,15.93
2018-01-13T11:16:39.746Z,19.70
2018-01-13T11:19:06.663Z,16.63
2018-01-13T11:21:33.533Z,14.50
2018-01-13T11:24:00.444Z,18.03
2018-01-13T11:26:27.387Z,17.47
2018-01-13T11:28:54.317Z,18.03
2018-01-13T11:31:21.896Z,17.37
2018-01-13T11:33:48.797Z,17.40
2018-01-13T11:36:15.703Z,17.00
2018-01-13T11:38:42.639Z,17.57
2018-01-13T11:41:09.487Z,19.97
2018-01-13T11:43:36.407Z,19.97
2018-01-13T11:46:04.070Z,20.20
2018-01-13T11:48:31.648Z,18.57
2018-01-13T11:50:58.643Z,16.57
2018-01-13T11:53:25.571Z,17.77
2018-01-13T11:55:52.438Z,18.27
2018-01-13T11:58:19.362Z,18.07
2018-01-13T12:00:46.234Z,18.03
2018-01-13T12:03:13.211Z,18.83
2018-01-13T12:05:40.077Z,17.47
2018-01-13T12:08:06.902Z,17.43
2018-01-13T12:10:33.817Z,16.60
2018-01-13T12:13:00.707Z,16.73
2018-01-13T12:15:27.635Z,17.67
2018-01-13T12:17:55.280Z,17.13
2018-01-13T12:20:22.217Z,15.97
2018-01-13T12:22:49.147Z,19.20
2018-01-13T12:25:28.178Z,16.73
2018-01-13T12:27:56.718Z,17.40
2018-01-13T12:30:23.696Z,16.30
2018-01-13T12:32:50.567Z,17.53
2018-01-13T12:35:17.483Z,17.23
2018-01-13T12:37:44.335Z,16.90
2018-01-13T12:40:11.261Z,15.90
2018-01-13T12:42:38.121Z,18.20
2018-01-13T12:45:05.099Z,18.70
2018-01-13T12:47:31.961Z,20.63
2018-01-13T12:49:59.630Z,16.43
2018-01-13T12:52:26.530Z,19.57
2018-01-13T12:54:53.465Z,18.93
2018-01-13T12:57:20.427Z,21.43
2018-01-13T12:59:47.292Z,21.37
2018-01-13T13:02:14.227Z,17.43
2018-01-13T13:04:41.088Z,19.73
2018-01-13T13:07:08.671Z,18.37
2018-01-13T13:09:35.706Z,16.90
2018-01-13T13:12:03.308Z,17.45
2018-01-13T13:14:30.158Z,17.37
2018-01-13T13:16:57.097Z,18.37
2018-01-13T13:19:23.998Z,18.73
2018-01-13T13:21:50.979Z,19.67
2018-01-13T13:24:17.845Z,19.87
2018-01-13T13:26:44.774Z,18.97
2018-01-13T13:29:11.635Z,20.17
2018-01-13T13:31:38.511Z,17.50
2018-01-13T13:34:05.422Z,17.75
2018-01-13T13:36:32.407Z,17.48
2018-01-13T13:38:59.351Z,18.37
2018-01-13T13:41:26.271Z,19.77
2018-01-13T13:43:53.114Z,18.60
2018-01-13T13:46:20.047Z,18.83
2018-01-13T13:48:46.960Z,18.43
2018-01-13T13:51:13.907Z,18.35
2018-01-13T13:53:40.753Z,18.40
2018-01-13T13:56:07.651Z,17.87
2018-01-13T13:58:34.561Z,20.10
2018-01-13T14:01:22.150Z,19.17
2018-01-13T14:03:28.486Z,15.38
2018-01-13T14:05:55.323Z,15.73
2018-01-13T14:08:22.267Z,17.80
2018-01-13T14:10:49.180Z,17.60
2018-01-13T14:13:16.067Z,15.30
2018-01-13T14:15:43.042Z,15.30
2018-01-13T14:18:10.696Z,16.40
2018-01-13T14:20:37.600Z,17.40
2018-01-13T14:23:04.527Z,18.13
2018-01-13T14:25:31.384Z,16.20
2018-01-13T14:27:58.308Z,18.20
2018-01-13T14:30:25.175Z,15.63
2018-01-13T14:32:52.617Z,16.80
2018-01-13T14:35:19.471Z,15.75
2018-01-13T14:37:46.443Z,15.60
2018-01-13T14:40:13.291Z,15.07
2018-01-13T14:42:40.177Z,15.85
2018-01-13T14:45:07.864Z,15.47
2018-01-13T14:47:34.733Z,16.60
2018-01-13T14:50:02.264Z,15.97
2018-01-13T14:52:29.220Z,13.70
2018-01-13T14:54:56.085Z,18.47
2018-01-13T14:57:23.071Z,16.08
2018-01-13T14:59:50.671Z,16.20
2018-01-13T15:02:17.691Z,14.43
2018-01-13T15:04:45.381Z,15.33
2018-01-13T15:07:12.301Z,15.97
2018-01-13T15:09:39.985Z,17.37
2018-01-13T15:12:06.891Z,15.60
2018-01-13T15:14:33.836Z,15.20
2018-01-13T15:17:00.724Z,15.85
2018-01-13T15:19:27.703Z,16.48
2018-01-13T15:21:54.623Z,14.90
2018-01-13T15:24:21.503Z,14.90
2018-01-13T15:26:48.438Z,17.25
2018-01-13T15:29:15.383Z,16.50
2018-01-13T15:31:42.242Z,16.90
2018-01-13T15:34:09.208Z,16.83
2018-01-13T15:36:36.799Z,17.45
2018-01-13T15:39:03.839Z,15.55
2018-01-13T15:41:30.759Z,14.73
2018-01-13T15:43:57.642Z,16.97
2018-01-13T15:46:24.576Z,15.77
2018-01-13T15:48:51.449Z,16.15
2018-01-13T15:51:18.377Z,15.15
2018-01-13T15:53:45.241Z,15.00
2018-01-13T15:56:12.154Z,15.80
2018-01-13T15:58:39.043Z,14.95
2018-01-13T16:01:05.975Z,14.73
2018-01-13T16:03:32.962Z,14.77
2018-01-13T16:05:59.810Z,16.50
2018-01-13T16:08:26.676Z,15.93
2018-01-13T16:10:54.360Z,16.30
2018-01-13T16:13:21.201Z,18.48
2018-01-13T16:15:48.094Z,15.85
2018-01-13T16:18:15.107Z,15.95
2018-01-13T16:20:42.108Z,15.88
2018-01-13T16:23:08.995Z,16.85
2018-01-13T16:25:35.850Z,17.05
2018-01-13T16:28:02.795Z,16.30
2018-01-13T16:30:29.686Z,17.90
2018-01-13T16:32:56.612Z,17.37
2018-01-13T16:35:23.584Z,17.13
2018-01-13T16:37:51.251Z,22.40
2018-01-13T16:40:18.878Z,19.15
2018-01-13T16:42:45.751Z,17.50
2018-01-13T16:45:12.805Z,19.40
2018-01-13T16:47:40.404Z,18.30
2018-01-13T16:50:07.277Z,19.55
2018-01-13T16:52:34.202Z,18.23
2018-01-13T16:55:01.076Z,16.90
2018-01-13T16:57:28.067Z,17.37
2018-01-13T16:59:55.582Z,17.60
2018-01-13T17:02:22.563Z,19.50
2018-01-13T17:04:50.184Z,21.00
2018-01-13T17:07:17.099Z,16.70
2018-01-13T17:09:43.964Z,20.90
2018-01-13T17:12:12.331Z,21.52
2018-01-13T17:14:39.271Z,20.12
2018-01-13T17:17:06.215Z,21.67
2018-01-13T17:19:33.151Z,18.35
2018-01-13T17:22:00.031Z,20.42
2018-01-13T17:24:26.965Z,18.17
2018-01-13T17:26:53.829Z,17.67
2018-01-13T17:29:20.722Z,20.37
2018-01-13T17:31:47.647Z,18.95
2018-01-13T17:34:15.233Z,22.95
2018-01-13T17:36:42.166Z,21.65
2018-01-13T17:39:09.847Z,20.15
2018-01-13T17:41:36.696Z,18.00
2018-01-13T17:44:03.566Z,19.87
2018-01-13T17:46:30.499Z,19.10
2018-01-13T17:48:57.384Z,19.35
2018-01-13T17:51:24.376Z,18.85
2018-01-13T17:53:51.228Z,17.83
2018-01-13T17:56:18.147Z,19.15
2018-01-13T17:58:45.921Z,18.15
2018-01-13T18:01:12.852Z,19.80
2018-01-13T18:03:40.500Z,19.65
2018-01-13T18:06:07.450Z,16.87
2018-01-13T18:08:34.308Z,22.50
2018-01-13T18:11:01.926Z,19.17
2018-01-13T18:13:28.875Z,19.58
2018-01-13T18:15:55.745Z,21.35
2018-01-13T18:18:22.774Z,19.52
2018-01-13T18:20:49.721Z,19.90
2018-01-13T18:23:16.600Z,19.17
2018-01-13T18:25:44.288Z,20.73
2018-01-13T18:28:11.168Z,25.15
2018-01-13T18:30:38.074Z,22.95
2018-01-13T18:33:05.063Z,21.85
2018-01-13T18:35:31.936Z,22.60
2018-01-13T18:37:58.864Z,19.50
2018-01-13T18:40:25.864Z,20.17
2018-01-13T18:42:52.752Z,20.30
2018-01-13T18:45:19.619Z,21.23
2018-01-13T18:47:46.557Z,18.85
2018-01-13T18:50:13.427Z,19.87
2018-01-13T18:52:41.798Z,20.42
2018-01-13T18:55:09.479Z,21.73
2018-01-13T18:57:36.430Z,19.23
2018-01-13T19:00:03.471Z,22.08
2018-01-13T19:02:30.338Z,21.52
2018-01-13T19:04:57.270Z,19.95
2018-01-13T19:07:24.198Z,21.00
2018-01-13T19:09:51.871Z,21.17
2018-01-13T19:12:19.555Z,19.40
2018-01-13T19:14:46.399Z,22.75
2018-01-13T19:17:13.330Z,20.48
2018-01-13T19:19:40.241Z,20.52
2018-01-13T19:22:07.194Z,22.95
2018-01-13T19:24:34.855Z,20.33
2018-01-13T19:27:02.545Z,18.10
2018-01-13T19:29:29.423Z,20.05
2018-01-13T19:31:56.435Z,21.10
2018-01-13T19:34:23.353Z,17.65
2018-01-13T19:36:50.276Z,19.50
2018-01-13T19:39:17.147Z,17.10
2018-01-13T19:41:44.120Z,19.50
2018-01-13T19:44:10.978Z,17.62
2018-01-13T19:46:37.897Z,17.62
2018-01-13T19:49:05.495Z,16.12
2018-01-13T19:51:32.363Z,14.90
2018-01-13T19:54:08.244Z,16.60
2018-01-13T19:56:49.116Z,15.95
2018-01-13T19:59:16.782Z,15.80
2018-01-13T20:01:43.634Z,13.62
2018-01-13T20:04:11.386Z,15.02
2018-01-13T20:06:38.260Z,15.30
2018-01-13T20:09:05.857Z,13.20
2018-01-13T20:11:35.184Z,16.77
2018-01-13T20:14:02.068Z,15.73
2018-01-13T20:16:29.746Z,16.00
2018-01-13T20:18:56.657Z,15.18
2018-01-13T20:21:24.006Z,14.70
2018-01-13T20:24:03.234Z,15.95
2018-01-13T20:26:41.293Z,14.40
2018-01-13T20:29:08.558Z,13.05
2018-01-13T20:31:46.341Z,14.50
2018-01-13T20:34:23.869Z,16.35
2018-01-13T20:37:03.871Z,14.68
2018-01-13T20:39:44.206Z,15.43
2018-01-13T20:42:13.269Z,18.45
2018-01-13T20:44:50.360Z,18.00
2018-01-13T20:47:24.090Z,14.90
2018-01-13T20:49:59.515Z,14.30
2018-01-13T20:52:37.244Z,15.40
2018-01-13T20:55:15.291Z,15.70
2018-01-13T20:57:52.118Z,16.15
2018-01-13T21:00:20.271Z,14.93
2018-01-13T21:02:59.429Z,14.00
2018-01-13T21:05:38.179Z,15.07
2018-01-13T21:08:07.554Z,15.25
2018-01-13T21:10:42.784Z,15.73
2018-01-13T21:13:17.906Z,17.20
2018-01-13T21:15:48.403Z,16.17
2018-01-13T21:18:16.277Z,15.13
2018-01-13T21:20:44.045Z,15.43
2018-01-13T21:23:12.075Z,16.12
2018-01-13T21:25:39.735Z,17.90
2018-01-13T21:28:07.728Z,14.68
2018-01-13T21:30:36.011Z,15.82
2018-01-13T21:33:03.681Z,16.60
2018-01-13T21:35:31.336Z,16.50
2018-01-13T21:37:58.520Z,16.42
2018-01-13T21:40:37.267Z,17.10
2018-01-13T21:43:10.394Z,17.40
2018-01-13T21:45:50.943Z,17.30
2018-01-13T21:48:26.844Z,15.95
2018-01-13T21:51:04.181Z,16.30
2018-01-13T21:53:43.629Z,17.08
2018-01-13T21:56:21.544Z,16.10
2018-01-13T21:59:00.793Z,15.55
2018-01-13T22:01:39.237Z,15.40
2018-01-13T22:04:11.334Z,15.45
2018-01-13T22:06:48.929Z,16.02
2018-01-13T22:09:23.729Z,15.07
2018-01-13T22:11:55.942Z,17.02
2018-01-13T22:14:29.372Z,14.68
2018-01-13T22:17:02.009Z,16.62
2018-01-13T22:19:40.582Z,16.67
2018-01-13T22:22:19.455Z,14.07
2018-01-13T22:24:57.742Z,14.45
2018-01-13T22:27:35.130Z,15.82
2018-01-13T22:30:15.134Z,18.77
2018-01-13T22:32:51.389Z,18.67
2018-01-13T22:35:31.847Z,17.23
2018-01-13T22:38:09.243Z,17.70
2018-01-13T22:40:47.056Z,17.58
2018-01-13T22:43:20.745Z,16.50
2018-01-13T22:45:57.223Z,17.17
2018-01-13T22:48:38.862Z,17.12
2018-01-13T22:51:17.614Z,14.55
2018-01-13T22:53:54.855Z,14.45
2018-01-13T22:56:34.510Z,16.65
2018-01-13T22:59:12.708Z,17.25
2018-01-13T23:01:47.652Z,16.48
2018-01-13T23:04:17.382Z,17.98
2018-01-13T23:06:47.056Z,16.15
2018-01-13T23:09:16.892Z,13.70
2018-01-13T23:11:45.112Z,16.27
2018-01-13T23:14:12.148Z,16.23
2018-01-13T23:16:39.081Z,14.95
2018-01-13T23:19:06.003Z,13.35
2018-01-13T23:21:32.929Z,16.73
2018-01-13T23:24:00.530Z,15.75
2018-01-13T23:26:27.452Z,13.15
2018-01-13T23:28:54.310Z,16.02
2018-01-13T23:31:21.224Z,17.25
2018-01-13T23:33:48.902Z,16.17
2018-01-13T23:36:15.750Z,14.70
2018-01-13T23:38:42.783Z,15.23
2018-01-13T23:41:10.394Z,16.55
2018-01-13T23:43:37.248Z,17.05
2018-01-13T23:46:04.152Z,16.33
2018-01-13T23:48:31.011Z,15.73
2018-01-13T23:50:57.943Z,17.70
2018-01-13T23:53:24.795Z,17.20
2018-01-13T23:55:51.703Z,15.82
2018-01-13T23:58:18.543Z,16.55
